Time;durP1;ratioP1;P1;durP2;ratioP2;P2;SDS_P1;SDS_P2;PMS_P1;PMS_P2;Temp;Humidity;BMP_temperature;BMP_pressure;BME280_temperature;BME280_humidity;BME280_pressure;Samples;Min_cycle;Max_cycle;Signal;HPM_P1;HPM_P2
2023/06/13 00:00:48;;;;;;;;;15.25;14.75;;;;;26.17;50.37;100601.56;4960126;28;45399;-50
2023/06/13 00:03:14;;;;;;;;;15.75;12.25;;;;;26.15;49.87;100598.19;4959961;28;45559;-44
2023/06/13 00:05:46;;;;;;;;;15.75;12.00;;;;;26.15;49.95;100600.84;4959517;28;46062;-52
2023/06/13 00:08:17;;;;;;;;;13.50;13.50;;;;;26.16;50.16;100599.88;4959166;28;45341;-49
2023/06/13 00:10:45;;;;;;;;;12.00;11.25;;;;;26.17;50.21;100606.03;4959773;28;45470;-54
2023/06/13 00:13:11;;;;;;;;;16.00;12.50;;;;;26.15;50.11;100603.50;4959383;28;45271;-58
2023/06/13 00:15:36;;;;;;;;;13.50;12.25;;;;;26.16;49.81;100604.34;4942141;28;47110;-59
2023/06/13 00:18:03;;;;;;;;;17.00;14.00;;;;;26.15;49.76;100597.34;4959501;28;45905;-44
2023/06/13 00:20:30;;;;;;;;;11.25;10.75;;;;;26.15;49.65;100597.34;4941748;28;45360;-41
2023/06/13 00:22:56;;;;;;;;;14.50;12.00;;;;;26.15;49.97;100587.56;4959744;28;45463;-41
2023/06/13 00:25:21;;;;;;;;;12.25;10.00;;;;;26.16;49.75;100593.72;4959439;28;45566;-40
2023/06/13 00:27:46;;;;;;;;;14.75;11.75;;;;;26.14;49.85;100593.84;4959775;28;45279;-43
2023/06/13 00:30:12;;;;;;;;;12.75;12.75;;;;;26.16;49.36;100591.06;4959459;28;45306;-58
2023/06/13 00:32:37;;;;;;;;;11.50;10.00;;;;;26.14;49.69;100591.19;4942112;28;45339;-56
2023/06/13 00:35:03;;;;;;;;;13.00;13.00;;;;;26.13;49.36;100589.50;4959079;28;46070;-58
2023/06/13 00:37:29;;;;;;;;;13.75;11.25;;;;;26.14;49.57;100591.19;4959107;28;45357;-50
2023/06/13 00:39:54;;;;;;;;;14.50;13.75;;;;;26.14;49.57;100580.56;4959364;28;45374;-55
2023/06/13 00:42:20;;;;;;;;;13.00;13.00;;;;;26.13;49.94;100580.72;4959622;28;45412;-58
2023/06/13 00:44:46;;;;;;;;;13.75;12.75;;;;;26.14;49.10;100575.25;4958933;28;46178;-56
2023/06/13 00:47:13;;;;;;;;;14.75;13.00;;;;;26.13;49.95;100570.91;4958971;28;45421;-56
2023/06/13 00:49:41;;;;;;;;;17.50;13.50;;;;;26.15;49.32;100576.09;4959121;28;45313;-45
2023/06/13 00:52:08;;;;;;;;;16.25;13.75;;;;;26.14;49.66;100579.72;4959195;28;45359;-47
2023/06/13 00:54:37;;;;;;;;;16.25;11.50;;;;;26.14;49.57;100580.56;4958828;28;46694;-37
2023/06/13 00:57:05;;;;;;;;;11.50;11.50;;;;;26.13;49.42;100581.53;4941308;28;45671;-47
2023/06/13 00:59:31;;;;;;;;;16.50;11.25;;;;;26.12;49.36;100574.53;4958930;28;45294;-53
2023/06/13 01:01:56;;;;;;;;;13.75;11.75;;;;;26.13;49.36;100564.78;4959097;28;45287;-54
2023/06/13 01:04:22;;;;;;;;;12.25;12.25;;;;;26.13;49.27;100572.75;4941493;28;46634;-52
2023/06/13 01:06:49;;;;;;;;;11.00;11.00;;;;;26.13;49.40;100567.44;4958800;28;45422;-57
2023/06/13 01:09:16;;;;;;;;;14.00;11.50;;;;;26.12;49.24;100566.56;4958868;28;45452;-56
2023/06/13 01:11:45;;;;;;;;;14.00;11.25;;;;;26.12;49.16;100568.41;4958868;28;45601;-55
2023/06/13 01:14:24;;;;;;;;;13.50;9.75;;;;;26.11;49.47;100572.84;4958432;28;46555;-56
2023/06/13 01:16:56;;;;;;;;;12.50;10.50;;;;;26.10;49.08;100567.69;4957824;28;45458;-57
2023/06/13 01:19:53;;;;;;;;;15.25;12.00;;;;;26.12;49.44;100568.41;4957874;28;45431;-57
2023/06/13 01:22:27;;;;;;;;;12.00;12.00;;;;;26.11;49.33;100564.88;4950381;28;45437;-57
2023/06/13 01:25:10;;;;;;;;;10.00;10.00;;;;;26.10;49.52;100565.84;4941503;28;45358;-60
2023/06/13 01:27:38;;;;;;;;;15.50;14.00;;;;;26.09;49.20;100561.47;4958674;28;45251;-58
2023/06/13 01:30:04;;;;;;;;;14.50;13.50;;;;;26.07;49.11;100560.78;4941297;28;45403;-56
2023/06/13 01:32:32;;;;;;;;;12.75;12.75;;;;;26.08;49.04;100557.13;4958289;28;45441;-58
2023/06/13 01:34:58;;;;;;;;;13.00;12.50;;;;;26.04;48.64;100559.19;4958228;28;45258;-58
2023/06/13 01:37:24;;;;;;;;;13.75;12.75;;;;;26.07;49.07;100558.13;4958743;28;45674;-60
2023/06/13 01:39:49;;;;;;;;;12.50;11.00;;;;;26.07;48.70;100556.31;4958504;28;45291;-40
2023/06/13 01:42:15;;;;;;;;;13.50;9.50;;;;;26.06;48.95;100562.59;4958483;28;45533;-49
2023/06/13 01:44:41;;;;;;;;;11.25;9.25;;;;;26.06;49.08;100564.41;4958107;28;46662;-51
2023/06/13 01:47:21;;;;;;;;;11.75;11.25;;;;;26.06;48.84;100565.22;4957968;28;45300;-42
2023/06/13 01:50:03;;;;;;;;;12.00;12.00;;;;;26.05;48.55;100558.22;4958176;28;45487;-36
2023/06/13 01:52:46;;;;;;;;;13.00;12.75;;;;;26.06;48.75;100557.28;4958495;28;45368;-43
2023/06/13 01:55:20;;;;;;;;;13.00;11.75;;;;;26.04;48.91;100563.69;4958020;28;45468;-54
2023/06/13 01:57:54;;;;;;;;;13.75;11.50;;;;;26.06;49.01;100567.06;4958227;28;45232;-39
2023/06/13 02:00:20;;;;;;;;;12.75;11.75;;;;;26.05;48.71;100562.72;4958026;28;45224;-41
2023/06/13 02:02:47;;;;;;;;;12.75;11.75;;;;;26.05;48.63;100554.75;4958380;28;45482;-51
2023/06/13 02:05:12;;;;;;;;;12.75;12.00;;;;;26.03;48.92;100552.19;4957791;28;45464;-46
2023/06/13 02:07:38;;;;;;;;;13.00;12.75;;;;;26.04;48.85;100558.38;4957751;28;45342;-49
2023/06/13 02:10:06;;;;;;;;;12.75;11.75;;;;;26.03;48.79;100548.72;4957916;28;45476;-46
2023/06/13 02:12:32;;;;;;;;;13.75;12.25;;;;;26.04;48.65;100547.75;4958130;28;45503;-47
2023/06/13 02:14:59;;;;;;;;;13.00;12.50;;;;;26.03;48.67;100551.38;4957924;28;46074;-45
2023/06/13 02:17:25;;;;;;;;;11.00;10.25;;;;;26.04;48.85;100537.13;4958116;28;45844;-40
2023/06/13 02:19:50;;;;;;;;;14.25;11.75;;;;;26.04;48.86;100539.78;4957940;28;45212;-59
2023/06/13 02:22:16;;;;;;;;;11.50;10.25;;;;;26.02;48.78;100544.38;4957971;28;45392;-54
2023/06/13 02:24:42;;;;;;;;;13.50;11.75;;;;;26.01;48.29;100542.69;4957502;28;46204;-59
2023/06/13 02:27:07;;;;;;;;;12.25;11.50;;;;;26.03;48.21;100543.41;4957532;28;45279;-57
2023/06/13 02:29:35;;;;;;;;;12.25;10.75;;;;;25.99;48.55;100536.66;4957255;28;45361;-58
2023/06/13 02:32:00;;;;;;;;;14.00;13.00;;;;;26.01;48.76;100543.53;4958025;28;45493;-38
2023/06/13 02:34:25;;;;;;;;;16.00;13.25;;;;;26.01;48.86;100538.25;4940297;28;47655;-54
2023/06/13 02:36:51;;;;;;;;;11.50;10.00;;;;;26.01;48.82;100543.53;4957555;28;45374;-56
2023/06/13 02:39:16;;;;;;;;;12.25;11.00;;;;;26.01;48.66;100534.72;4957061;28;54457;-57
2023/06/13 02:41:41;;;;;;;;;11.67;11.33;;;;;26.01;48.56;100534.72;4956943;28;57364;-58
2023/06/13 02:44:07;;;;;;;;;13.25;12.00;;;;;26.00;48.68;100538.34;4957184;28;46023;-53
2023/06/13 02:46:33;;;;;;;;;13.50;13.50;;;;;26.00;48.45;100530.38;4957406;28;45380;-57
2023/06/13 02:48:58;;;;;;;;;14.00;10.00;;;;;25.99;48.81;100529.56;4957746;28;45274;-54
2023/06/13 02:51:24;;;;;;;;;13.50;11.25;;;;;25.99;48.33;100534.00;4957495;28;45219;-58
2023/06/13 02:53:49;;;;;;;;;11.50;11.25;;;;;25.98;48.58;100521.69;4957107;28;46271;-58
2023/06/13 02:56:15;;;;;;;;;13.00;12.00;;;;;25.99;48.59;100518.06;4939768;28;45369;-58
2023/06/13 02:58:40;;;;;;;;;13.25;10.25;;;;;26.00;48.58;100525.06;4957366;28;45412;-52
2023/06/13 03:01:06;;;;;;;;;11.50;11.50;;;;;25.99;48.75;100521.59;4957524;28;45292;-47
2023/06/13 03:03:32;;;;;;;;;11.75;11.00;;;;;25.99;48.51;100526.91;4957040;28;46347;-45
2023/06/13 03:05:59;;;;;;;;;12.25;10.50;;;;;26.00;48.42;100530.38;4957325;28;45283;-56
2023/06/13 03:08:26;;;;;;;;;11.25;10.00;;;;;25.97;48.51;100525.31;4957338;28;45377;-51
2023/06/13 03:10:51;;;;;;;;;8.25;8.25;;;;;25.99;48.32;100528.69;4957405;28;45532;-56
2023/06/13 03:13:18;;;;;;;;;14.75;10.75;;;;;25.99;48.25;100540.19;4956968;28;46240;-53
2023/06/13 03:15:47;;;;;;;;;15.00;12.00;;;;;25.98;48.24;100538.47;4957001;28;45436;-57
2023/06/13 03:18:16;;;;;;;;;12.00;11.25;;;;;25.97;48.01;100535.94;4957135;28;45409;-54
2023/06/13 03:20:47;;;;;;;;;12.25;11.50;;;;;25.99;48.27;100534.00;4939925;28;45481;-53
2023/06/13 03:23:14;;;;;;;;;12.50;12.50;;;;;25.99;48.11;100534.00;4956694;28;45569;-59
2023/06/13 03:25:42;;;;;;;;;13.50;12.50;;;;;25.98;48.45;100534.97;4956950;28;45814;-58
2023/06/13 03:28:08;;;;;;;;;12.00;11.25;;;;;25.98;48.21;100538.47;4957011;28;45350;-58
2023/06/13 03:30:34;;;;;;;;;10.75;10.75;;;;;25.97;48.37;100533.28;4957084;28;45482;-54
2023/06/13 03:33:00;;;;;;;;;9.25;9.25;;;;;25.97;47.93;100542.09;4957121;28;46056;-58
2023/06/13 03:35:25;;;;;;;;;12.25;12.00;;;;;25.96;48.44;100543.06;4956506;28;45263;-53
2023/06/13 03:37:51;;;;;;;;;11.00;11.00;;;;;25.96;48.12;100537.75;4939484;28;45382;-40
2023/06/13 03:40:16;;;;;;;;;13.25;11.25;;;;;25.97;48.18;100543.91;4956809;28;45583;-51
2023/06/13 03:42:41;;;;;;;;;14.75;12.25;;;;;25.96;47.85;100534.28;4958427;28;58899;-43
2023/06/13 03:45:07;;;;;;;;;13.00;11.75;;;;;25.98;48.08;100542.94;4960089;28;45358;-47
2023/06/13 03:47:32;;;;;;;;;12.25;12.25;;;;;25.95;48.35;100533.41;4960503;28;45252;-57
2023/06/13 03:49:57;;;;;;;;;12.25;10.75;;;;;25.97;47.70;100533.28;4960107;28;45393;-43
2023/06/13 03:52:23;;;;;;;;;15.50;11.00;;;;;25.97;48.31;100535.94;4959547;28;50200;-46
2023/06/13 03:54:48;;;;;;;;;15.50;12.25;;;;;25.94;48.08;100526.44;4959229;28;57835;-52
2023/06/13 03:57:14;;;;;;;;;13.75;13.00;;;;;25.97;47.80;100535.94;4960066;28;45398;-48
2023/06/13 03:59:39;;;;;;;;;15.25;11.50;;;;;25.97;47.90;100543.91;4960055;28;45528;-55
2023/06/13 04:02:05;;;;;;;;;14.25;12.00;;;;;25.96;47.72;100539.59;4959715;28;46045;-38
2023/06/13 04:04:32;;;;;;;;;17.25;13.25;;;;;25.97;48.19;100542.09;4959925;28;45575;-55
2023/06/13 04:06:57;;;;;;;;;16.25;16.25;;;;;25.98;48.34;100542.94;4942466;28;45427;-57
2023/06/13 04:09:23;;;;;;;;;39.75;34.75;;;;;25.95;47.90;100537.91;4959901;28;45588;-44
2023/06/13 04:11:51;;;;;;;;;53.00;42.75;;;;;25.97;48.07;100538.59;4959443;28;46928;-46
2023/06/13 04:14:16;;;;;;;;;62.25;49.00;;;;;25.99;48.05;100544.63;4959521;28;45378;-60
2023/06/13 04:16:43;;;;;;;;;62.50;50.25;;;;;25.99;48.37;100541.97;4942235;28;45318;-48
2023/06/13 04:19:08;;;;;;;;;61.00;48.25;;;;;25.99;48.24;100541.97;4959559;28;45433;-56
2023/06/13 04:21:34;;;;;;;;;61.75;50.00;;;;;25.99;48.00;100547.28;4959472;28;46014;-54
2023/06/13 04:24:00;;;;;;;;;57.00;45.75;;;;;25.98;47.56;100551.75;4958831;28;45776;-50
2023/06/13 04:26:25;;;;;;;;;58.50;46.00;;;;;25.96;48.01;100544.91;4959472;28;45416;-58
2023/06/13 04:28:50;;;;;;;;;59.00;48.00;;;;;25.97;47.96;100546.56;4942105;28;45313;-57
2023/06/13 04:31:17;;;;;;;;;51.25;42.25;;;;;25.98;47.77;100553.56;4958790;28;54787;-53
2023/06/13 04:33:44;;;;;;;;;53.25;43.25;;;;;25.97;47.68;100549.22;4959081;28;46131;-43
2023/06/13 04:36:13;;;;;;;;;46.50;37.50;;;;;25.96;47.79;100555.53;4959274;28;45232;-42
2023/06/13 04:38:39;;;;;;;;;29.00;28.75;;;;;25.95;47.87;100559.16;4959425;28;45583;-38
2023/06/13 04:41:13;;;;;;;;;19.25;18.50;;;;;25.89;47.93;100553.34;4959257;28;46310;-54
2023/06/13 04:43:41;;;;;;;;;18.50;16.50;;;;;25.81;47.53;100558.47;4940870;28;45383;-55
2023/06/13 04:46:10;;;;;;;;;20.75;17.50;;;;;25.74;48.08;100549.34;4959483;28;45381;-49
2023/06/13 04:48:35;;;;;;;;;15.00;15.00;;;;;25.70;47.47;100553.19;4959664;28;45520;-55
2023/06/13 04:51:01;;;;;;;;;14.75;13.00;;;;;25.65;47.36;100552.72;4958993;28;45370;-49
2023/06/13 04:53:26;;;;;;;;;15.75;15.75;;;;;25.59;47.60;100546.09;4958805;28;45268;-55
2023/06/13 04:55:52;;;;;;;;;14.75;12.25;;;;;25.56;47.87;100560.47;4959353;28;45236;-51
2023/06/13 04:58:18;;;;;;;;;13.75;13.50;;;;;25.55;47.87;100557.97;4959269;28;45774;-52
2023/06/13 05:00:48;;;;;;;;;15.75;14.00;;;;;25.49;47.69;100558.44;4958814;28;46547;-52
2023/06/13 05:03:17;;;;;;;;;14.00;13.00;;;;;25.47;47.91;100555.91;4959059;28;45726;-55
2023/06/13 05:05:46;;;;;;;;;14.75;13.00;;;;;25.44;48.05;100561.47;4959098;28;45556;-54
2023/06/13 05:08:19;;;;;;;;;16.25;15.25;;;;;25.38;48.11;100553.97;4941755;28;45473;-55
2023/06/13 05:10:47;;;;;;;;;15.75;13.75;;;;;25.37;48.14;100554.94;4958747;28;46388;-57
2023/06/13 05:13:14;;;;;;;;;18.50;16.75;;;;;25.32;47.81;100553.50;4958730;28;45761;-53
2023/06/13 05:15:42;;;;;;;;;15.75;12.50;;;;;25.32;47.81;100557.97;4958749;28;45319;-56
2023/06/13 05:18:08;;;;;;;;;16.00;15.50;;;;;25.31;47.83;100565.06;4959356;28;45399;-57
2023/06/13 05:20:33;;;;;;;;;13.25;13.00;;;;;25.29;48.19;100561.72;4958381;28;45972;-54
2023/06/13 05:23:01;;;;;;;;;17.50;14.00;;;;;25.27;47.98;100561.00;4958771;28;45385;-56
2023/06/13 05:25:27;;;;;;;;;15.75;10.75;;;;;25.26;48.02;100559.31;4958692;28;45348;-47
2023/06/13 05:27:53;;;;;;;;;16.75;13.00;;;;;25.25;47.99;100562.94;4958734;28;45338;-55
2023/06/13 05:30:18;;;;;;;;;14.50;14.00;;;;;25.24;48.08;100561.25;4958375;28;45636;-51
2023/06/13 05:32:43;;;;;;;;;16.50;16.00;;;;;25.22;48.07;100555.22;4957988;28;51595;-56
2023/06/13 05:35:09;;;;;;;;;12.50;12.00;;;;;25.21;48.42;100558.81;4958676;28;45310;-53
2023/06/13 05:37:37;;;;;;;;;13.25;13.25;;;;;25.20;48.52;100551.81;4958693;28;45222;-49
2023/06/13 05:40:08;;;;;;;;;16.25;12.00;;;;;25.20;48.33;100551.00;4958190;28;46324;-44
2023/06/13 05:42:35;;;;;;;;;14.50;14.25;;;;;25.19;48.14;100549.31;4958114;28;45418;-54
2023/06/13 05:45:08;;;;;;;;;18.00;14.25;;;;;25.21;48.60;100552.69;4940957;28;45196;-55
2023/06/13 05:47:33;;;;;;;;;17.50;16.50;;;;;25.17;48.22;100550.28;4957316;28;45362;-54
2023/06/13 05:49:59;;;;;;;;;14.50;13.25;;;;;25.18;48.16;100548.47;4958004;28;46294;-52
2023/06/13 05:52:28;;;;;;;;;20.75;15.75;;;;;25.22;48.50;100549.91;4957921;28;45346;-48
2023/06/13 05:54:53;;;;;;;;;12.25;10.00;;;;;25.21;48.49;100561.47;4958174;28;45363;-44
2023/06/13 05:57:19;;;;;;;;;15.00;13.00;;;;;25.23;48.26;100559.56;4958229;28;45433;-39
2023/06/13 05:59:44;;;;;;;;;16.00;15.25;;;;;25.21;48.13;100563.28;4957870;28;46042;-46
2023/06/13 06:02:11;;;;;;;;;19.00;17.50;;;;;25.22;48.18;100557.03;4958075;28;45335;-54
2023/06/13 06:04:37;;;;;;;;;15.25;13.50;;;;;25.20;48.01;100564.25;4957574;28;45381;-53
2023/06/13 06:07:03;;;;;;;;;16.00;14.25;;;;;25.22;48.24;100573.78;4958081;28;45616;-49
2023/06/13 06:09:28;;;;;;;;;16.50;15.50;;;;;25.21;48.04;100561.47;4957700;28;47006;-56
2023/06/13 06:11:54;;;;;;;;;18.25;16.75;;;;;25.18;47.70;100553.78;4956964;28;45274;-56
2023/06/13 06:14:20;;;;;;;;;19.00;16.00;;;;;25.22;47.92;100552.56;4957900;28;45387;-54
2023/06/13 06:16:45;;;;;;;;;18.50;16.50;;;;;25.24;47.78;100555.09;4957875;28;45497;-55
2023/06/13 06:19:11;;;;;;;;;16.50;12.75;;;;;25.24;48.09;100553.28;4957040;28;45544;-58
2023/06/13 06:21:36;;;;;;;;;19.25;17.00;;;;;25.26;47.50;100547.84;4957606;28;45244;-55
2023/06/13 06:24:01;;;;;;;;;16.50;16.50;;;;;25.29;47.53;100544.94;4940174;28;45362;-59
2023/06/13 06:26:29;;;;;;;;;17.50;13.00;;;;;25.33;47.10;100549.06;4958005;28;45549;-55
2023/06/13 06:28:55;;;;;;;;;20.75;13.75;;;;;25.36;47.19;100547.94;4957459;28;46139;-57
2023/06/13 06:31:21;;;;;;;;;16.75;14.00;;;;;25.37;47.16;100545.16;4957536;28;45258;-54
2023/06/13 06:33:46;;;;;;;;;17.00;16.00;;;;;25.39;46.83;100545.06;4957468;28;45391;-52
2023/06/13 06:36:12;;;;;;;;;17.25;16.00;;;;;25.44;46.70;100550.84;4958034;28;45399;-49
2023/06/13 06:38:40;;;;;;;;;20.00;15.00;;;;;25.45;47.02;100555.19;4957339;28;45594;-58
2023/06/13 06:41:05;;;;;;;;;20.75;15.75;;;;;25.47;46.81;100545.31;4957294;28;45854;-57
2023/06/13 06:43:30;;;;;;;;;19.00;15.25;;;;;25.49;46.83;100547.81;4957472;28;45353;-56
2023/06/13 06:45:56;;;;;;;;;18.00;16.50;;;;;25.50;46.50;100545.06;4957251;28;47398;-52
2023/06/13 06:48:21;;;;;;;;;15.00;13.75;;;;;25.52;46.88;100542.28;4957151;28;46258;-50
2023/06/13 06:50:46;;;;;;;;;17.75;14.00;;;;;25.54;46.85;100540.34;4956782;28;58994;-53
2023/06/13 06:53:11;;;;;;;;;13.25;13.25;;;;;25.55;46.61;100542.88;4957666;28;45243;-51
2023/06/13 06:55:37;;;;;;;;;14.75;13.00;;;;;25.57;46.38;100535.63;4957355;28;45573;-48
2023/06/13 06:58:02;;;;;;;;;17.25;16.25;;;;;25.58;46.08;100531.16;4956803;28;54282;-55
2023/06/13 07:00:27;;;;;;;;;16.50;15.25;;;;;25.57;46.03;100530.31;4957266;28;45573;-56
2023/06/13 07:02:54;;;;;;;;;18.75;14.50;;;;;25.60;45.62;100534.53;4957190;28;45388;-56
2023/06/13 07:05:20;;;;;;;;;13.25;13.00;;;;;25.61;46.05;100542.38;4957266;28;45500;-51
2023/06/13 07:07:45;;;;;;;;;15.75;14.25;;;;;25.62;45.42;100533.44;4957013;28;45391;-52
2023/06/13 07:10:11;;;;;;;;;16.25;11.25;;;;;25.61;45.28;100531.75;4957293;28;45667;-56
2023/06/13 07:12:40;;;;;;;;;14.25;12.50;;;;;25.63;45.70;100527.16;4957191;28;45303;-58
2023/06/13 07:15:06;;;;;;;;;16.00;15.25;;;;;25.66;45.59;100538.50;4957237;28;45638;-52
2023/06/13 07:17:32;;;;;;;;;12.25;10.50;;;;;25.68;45.90;100544.53;4958895;28;45259;-51
2023/06/13 07:19:57;;;;;;;;;15.75;15.50;;;;;25.69;45.63;100539.06;4960526;28;45322;-55
2023/06/13 07:22:23;;;;;;;;;16.00;13.00;;;;;25.71;45.80;100544.28;4960453;28;45422;-55
2023/06/13 07:24:48;;;;;;;;;14.50;14.25;;;;;25.70;45.14;100542.59;4960741;28;45404;-54
2023/06/13 07:27:15;;;;;;;;;13.50;13.50;;;;;25.73;45.23;100547.66;4960527;28;45383;-46
2023/06/13 07:29:41;;;;;;;;;16.75;15.00;;;;;25.74;45.34;100546.69;4942871;28;45827;-54
2023/06/13 07:32:06;;;;;;;;;15.50;13.75;;;;;25.76;45.39;100550.03;4960536;28;45501;-55
2023/06/13 07:34:32;;;;;;;;;13.25;11.75;;;;;25.77;45.02;100546.41;4960491;28;45509;-55
2023/06/13 07:36:57;;;;;;;;;15.75;14.75;;;;;25.77;45.35;100547.28;4959839;28;53227;-54
2023/06/13 07:39:22;;;;;;;;;16.50;15.25;;;;;25.78;45.35;100548.09;4960120;28;45419;-40
2023/06/13 07:41:49;;;;;;;;;14.25;14.00;;;;;25.80;44.88;100546.16;4959900;28;51528;-56
2023/06/13 07:44:15;;;;;;;;;17.75;14.25;;;;;25.76;45.04;100531.44;4960608;28;45557;-43
2023/06/13 07:46:41;;;;;;;;;17.50;15.00;;;;;25.83;45.28;100540.59;4959969;28;45239;-48
2023/06/13 07:49:06;;;;;;;;;1.75;1.75;;;;;25.85;45.49;100548.44;4960122;28;45339;-50
2023/06/13 07:51:32;;;;;;;;;14.50;14.25;;;;;25.86;45.48;100547.47;4960046;28;45236;-54
2023/06/13 07:53:57;;;;;;;;;17.25;15.50;;;;;25.86;45.56;100537.69;4960220;28;45690;-60
2023/06/13 07:56:23;;;;;;;;;17.00;14.50;;;;;25.89;45.70;100547.22;4959426;28;46235;-54
2023/06/13 07:58:48;;;;;;;;;17.25;16.00;;;;;25.87;45.66;100534.06;4959023;28;45516;-50
2023/06/13 08:01:14;;;;;;;;;16.00;14.50;;;;;25.91;45.39;100529.31;4959366;28;45461;-58
2023/06/13 08:03:39;;;;;;;;;13.25;13.25;;;;;25.92;45.34;100538.97;4959244;28;45641;-41
2023/06/13 08:06:04;;;;;;;;;14.00;12.00;;;;;25.91;44.83;100537.28;4958853;28;45452;-49
2023/06/13 08:08:30;;;;;;;;;14.00;12.00;;;;;25.92;44.39;100537.19;4959023;28;45348;-41
2023/06/13 08:10:56;;;;;;;;;17.50;13.75;;;;;25.92;44.52;100538.97;4940999;28;45326;-40
2023/06/13 08:13:21;;;;;;;;;16.00;14.00;;;;;25.95;44.60;100543.22;4959720;28;45600;-38
2023/06/13 08:15:47;;;;;;;;;16.25;14.50;;;;;25.95;44.34;100543.22;4959894;28;45330;-59
2023/06/13 08:18:13;;;;;;;;;14.25;12.50;;;;;25.95;44.09;100543.22;4958311;28;45576;-45
2023/06/13 08:20:38;;;;;;;;;18.33;14.00;;;;;25.95;44.28;100533.41;4959535;28;45456;-58
2023/06/13 08:23:04;;;;;;;;;13.25;12.75;;;;;25.95;43.84;100532.59;4959810;28;45263;-57
2023/06/13 08:25:29;;;;;;;;;24.50;16.75;;;;;25.99;43.79;100541.97;4959192;28;46010;-59
2023/06/13 08:27:55;;;;;;;;;12.50;12.50;;;;;25.99;43.79;100529.56;4958974;28;45305;-50
2023/06/13 08:30:21;;;;;;;;;16.00;13.75;;;;;25.99;43.96;100528.69;4959574;28;45248;-47
2023/06/13 08:32:47;;;;;;;;;13.50;13.50;;;;;26.00;43.59;100535.69;4960030;28;45245;-55
2023/06/13 08:35:12;;;;;;;;;16.00;12.25;;;;;26.00;43.65;100523.28;4941624;28;48978;-50
2023/06/13 08:37:39;;;;;;;;;14.25;13.00;;;;;26.00;43.57;100520.63;4959298;28;45448;-54
2023/06/13 08:40:07;;;;;;;;;15.75;15.75;;;;;26.03;43.05;100524.81;4959361;28;45334;-55
2023/06/13 08:42:32;;;;;;;;;14.25;13.25;;;;;26.01;43.32;100521.44;4959406;28;45457;-52
2023/06/13 08:45:00;;;;;;;;;14.00;13.00;;;;;26.02;43.24;100518.66;4959050;28;45354;-49
2023/06/13 08:47:25;;;;;;;;;14.50;12.25;;;;;26.03;43.26;100516.84;4959152;28;45312;-55
2023/06/13 08:49:52;;;;;;;;;14.00;13.00;;;;;26.04;43.10;100515.88;4959462;28;45381;-39
2023/06/13 08:52:18;;;;;;;;;10.75;9.75;;;;;26.05;43.23;100512.25;4959719;28;45613;-51
2023/06/13 08:54:45;;;;;;;;;16.25;15.25;;;;;26.03;42.61;100514.19;4958906;28;46253;-52
2023/06/13 08:57:16;;;;;;;;;14.75;12.00;;;;;26.04;42.81;100515.88;4959113;28;45323;-44
2023/06/13 08:59:45;;;;;;;;;15.50;15.00;;;;;26.03;42.88;100514.19;4959153;28;45326;-51
2023/06/13 09:02:14;;;;;;;;;16.75;15.00;;;;;26.05;42.90;100515.75;4959155;28;45315;-57
2023/06/13 09:04:43;;;;;;;;;20.25;13.50;;;;;26.06;42.47;100508.63;4958749;28;45295;-58
2023/06/13 09:07:10;;;;;;;;;17.25;13.75;;;;;26.07;42.52;100516.47;4956594;28;45507;-56
2023/06/13 09:09:37;;;;;;;;;13.75;12.00;;;;;26.07;42.30;100521.78;4958867;28;45380;-56
2023/06/13 09:12:04;;;;;;;;;16.50;14.25;;;;;26.08;42.49;100527.91;4941663;28;45574;-57
2023/06/13 09:14:29;;;;;;;;;12.75;11.75;;;;;26.06;42.50;100525.41;4957908;28;45721;-56
2023/06/13 09:16:55;;;;;;;;;17.75;14.00;;;;;26.10;42.34;100522.53;4958202;28;52663;-54
2023/06/13 09:19:20;;;;;;;;;14.75;14.25;;;;;26.09;42.18;100529.59;4959043;28;45223;-53
2023/06/13 09:21:46;;;;;;;;;14.00;13.25;;;;;26.08;41.74;100525.25;4958828;28;45652;-48
2023/06/13 09:24:12;;;;;;;;;16.75;15.25;;;;;26.10;41.52;100519.88;4957288;28;45260;-51
2023/06/13 09:26:39;;;;;;;;;17.25;13.75;;;;;26.10;41.83;100525.19;4958440;28;45358;-48
2023/06/13 09:29:06;;;;;;;;;21.00;16.00;;;;;26.11;41.63;100522.38;4958725;28;45303;-49
2023/06/13 09:31:32;;;;;;;;;18.25;14.25;;;;;26.12;41.96;100520.59;4957480;28;45607;-53
2023/06/13 09:34:06;;;;;;;;;14.00;14.00;;;;;26.11;41.84;100511.75;4958039;28;46080;-45
2023/06/13 09:36:35;;;;;;;;;14.25;14.25;;;;;26.13;41.28;100519.63;4958386;28;45319;-43
2023/06/13 09:39:03;;;;;;;;;18.00;15.75;;;;;26.13;41.70;100517.78;4957639;28;45323;-48
2023/06/13 09:41:31;;;;;;;;;15.75;14.25;;;;;26.14;41.21;100522.13;4941153;28;45423;-47
2023/06/13 09:44:01;;;;;;;;;15.75;13.75;;;;;26.15;41.43;100522.97;4957415;28;45523;-58
2023/06/13 09:46:28;;;;;;;;;16.00;14.25;;;;;26.13;41.46;100512.47;4958321;28;45180;-55
2023/06/13 09:48:53;;;;;;;;;16.00;13.75;;;;;26.14;41.24;100508.84;4958664;28;45315;-57
2023/06/13 09:51:21;;;;;;;;;19.00;17.00;;;;;26.13;40.81;100520.44;4941327;28;45248;-49
2023/06/13 09:53:49;;;;;;;;;15.50;13.25;;;;;26.14;40.79;100511.50;4958185;28;47020;-50
2023/06/13 09:56:15;;;;;;;;;15.50;15.50;;;;;26.17;40.91;100518.38;4940784;28;45292;-53
2023/06/13 09:58:41;;;;;;;;;13.00;11.75;;;;;26.16;40.76;100514.03;4958334;28;45413;-51
2023/06/13 10:01:14;;;;;;;;;15.75;15.00;;;;;26.18;40.37;100522.72;4958242;28;45503;-53
2023/06/13 10:03:41;;;;;;;;;15.00;13.75;;;;;26.18;40.03;100522.72;4957837;28;46737;-53
2023/06/13 10:06:06;;;;;;;;;17.00;15.25;;;;;26.17;40.12;100527.19;4957876;28;45272;-58
2023/06/13 10:08:33;;;;;;;;;15.00;13.75;;;;;26.17;39.70;100532.50;4940638;28;45302;-54
2023/06/13 10:11:07;;;;;;;;;16.00;14.25;;;;;26.18;39.81;100520.88;4958060;28;45512;-44
2023/06/13 10:13:39;;;;;;;;;12.75;11.50;;;;;26.17;39.45;100518.38;4940208;28;47542;-45
2023/06/13 10:16:07;;;;;;;;;18.25;15.25;;;;;26.16;39.29;100514.88;4957733;28;45381;-57
2023/06/13 10:18:37;;;;;;;;;16.00;15.75;;;;;26.20;39.05;100521.59;4957970;28;45270;-56
2023/06/13 10:21:02;;;;;;;;;15.00;13.25;;;;;26.18;38.70;100520.88;4957930;28;45468;-49
2023/06/13 10:23:32;;;;;;;;;15.00;12.50;;;;;26.16;38.87;100525.50;4957764;28;45366;-53
2023/06/13 10:26:04;;;;;;;;;15.50;15.25;;;;;26.21;38.92;100528.59;4940277;28;45660;-57
2023/06/13 10:28:39;;;;;;;;;15.00;14.00;;;;;26.21;39.00;100530.44;4957708;28;45232;-56
2023/06/13 10:31:38;;;;;;;;;16.50;15.25;;;;;26.24;38.71;100533.66;4957968;28;45562;-55
2023/06/13 10:34:19;;;;;;;;;14.00;14.00;;;;;26.23;38.72;100529.31;4957397;28;46352;-55
2023/06/13 10:37:01;;;;;;;;;17.25;15.25;;;;;26.23;39.05;100521.34;4957522;28;45259;-61
2023/06/13 10:39:40;;;;;;;;;14.75;13.75;;;;;26.23;38.48;100521.34;4958133;28;45389;-56
2023/06/13 10:42:47;;;;;;;;;15.00;14.50;;;;;26.24;38.70;100528.34;4957522;28;45267;-56
2023/06/13 10:45:21;;;;;;;;;15.25;14.25;;;;;26.26;38.83;100517.59;4957382;28;45228;-54
2023/06/13 10:47:47;;;;;;;;;15.75;15.00;;;;;26.26;38.77;100520.25;4939637;28;45233;-56
2023/06/13 10:50:16;;;;;;;;;14.00;14.00;;;;;26.27;38.37;100521.94;4956005;28;46088;-53
2023/06/13 10:52:48;;;;;;;;;16.25;15.50;;;;;26.28;38.63;100517.47;4957631;28;45437;-57
2023/06/13 10:55:25;;;;;;;;;17.75;14.50;;;;;26.27;38.47;100510.47;4956985;28;47500;-59
2023/06/13 10:57:53;;;;;;;;;16.50;16.00;;;;;26.29;38.51;100524.47;4957283;28;45948;-52
2023/06/13 11:00:34;;;;;;;;;15.00;13.00;;;;;26.28;38.41;100515.63;4957437;28;45395;-58
2023/06/13 11:03:20;;;;;;;;;16.50;15.75;;;;;26.31;38.58;100517.19;4957527;28;45406;-53
2023/06/13 11:05:45;;;;;;;;;17.25;15.50;;;;;26.32;38.33;100522.38;4956715;28;46198;-51
2023/06/13 11:08:15;;;;;;;;;17.00;14.33;;;;;26.33;38.32;100515.25;4939665;28;45840;-57
2023/06/13 11:10:45;;;;;;;;;17.25;16.00;;;;;26.32;38.25;100510.91;4957099;28;45425;-56